Flight Track Log - Related Links

Times and Time Zones

All times are in EDT time to prevent confusion due to time zone crossing. See the N628GE flight status page for this flight to view local times or setup timezone preferences in your user account.


Time Position Orientation Groundspeed Altitude Reporting Facility
EDT Latitude Longitude Course Direction KTS MPH feet Rate Location/Type
Sat 09:42:23 AM 40.8333 -74.2833 323° Northwest 102 117 1,700  Level New York TRACON
Sat 09:43:23 AM 40.8000 -74.2667 159° South 105 121 2,300 650 Climbing New York TRACON
Sat 09:44:23 AM 40.7833 -74.2833 217° Southwest 87 100 3,000 700 Climbing New York TRACON
Sat 09:45:23 AM 40.8000 -74.3000 323° Northwest 81 93 3,700 500 Climbing New York TRACON
Sat 09:46:23 AM 40.8167 -74.3167 323° Northwest 101 116 4,000 150 Climbing New York TRACON
Sat 09:47:00 AM 40.9756 -74.4089 323° Northwest  Level FlightAware Approximate
Sat 09:47:23 AM 40.8500 -74.3500 323° Northwest 130 150 4,000  Level New York TRACON
Sat 09:48:23 AM 40.8833 -74.3667 339° North 125 144 4,000  Level New York TRACON
Sat 09:49:23 AM 40.9000 -74.3833 323° Northwest 124 143 4,000  Level New York TRACON
Sat 09:50:29 AM 40.9333 -74.4167 323° Northwest 119 137 4,000  Level New York TRACON
Sat 09:51:23 AM 40.9667 -74.4333 339° North 124 143 4,000  Level New York TRACON
Sat 09:52:23 AM 40.9833 -74.4667 304° West 124 143 4,000  Level New York TRACON
Sat 09:53:29 AM 41.0167 -74.5000 323° Northwest 122 140 4,000  Level New York TRACON
Sat 09:54:23 AM 41.0500 -74.5167 339° North 125 144 4,000  Level New York TRACON
Sat 09:55:23 AM 41.0833 -74.5167 360° North 150 173 4,000  Level New York TRACON
Sat 09:56:23 AM 41.0833 -74.4667 90° East 159 183 4,000 -190 Level New York TRACON
Sat 09:57:29 AM 41.0667 -74.4000 108° East 164 189 3,600 -429 Descending New York TRACON
Sat 09:58:29 AM 41.0667 -74.3333 90° East 161 185 3,100 -300 Descending New York TRACON
Sat 09:59:29 AM 41.0667 -74.2833 90° East 140 161 3,000 -50 Descending New York TRACON
Sat 10:00:29 AM 41.0500 -74.2333 114° Southeast 134 154 3,000 -200 Level New York TRACON
Sat 10:01:29 AM 41.0333 -74.2000 124° Southeast 140 161 2,600 -474 Descending New York TRACON
Sat 10:02:23 AM 41.0000 -74.1833 159° South 145 167 2,100 -300 Descending New York TRACON
Sat 10:03:29 AM 40.9667 -74.2167 217° Southwest 122 140 2,000 -150 Descending New York TRACON
Sat 10:04:23 AM 40.9500 -74.2333 217° Southwest 108 124 1,800 -368 Descending New York TRACON
Sat 10:05:23 AM 40.9167 -74.2500 201° Southwest 110 127 1,300 -500 Descending New York TRACON
Sat 10:08:00 AM 40.9167 -74.3247 270° West  Level FlightAware Approximate

Login

Don't have an account? Register now (free) for customized features, flight alerts, and more!